Aérodrome :
LOGIN :

S'inscrire | Disclaimer

   EN    FR    IT 

 










Légende :    VFR   VFR Marginal   IFR   IFR Intensif   IFR Très Intensif
Visi : 
Plafond : 
>= 8 km
>= 3000ft
5 à 8 km
1000 à 3000 ft
1500m à 5 km
500 à 1000 ft
800 à 1500m
200 à 500 ft
< 800m
< 200 ft
Symboles :   Orages  Brouillard  Fortes neiges  Fortes précipitations  Vent > 20 kt
SIGMETs :   Divers  Orages  Givrage  Turbulence  Onde Orograph.  Cendres Volcan.







- Altitude de l'aérodrome : 788 ft
- Code IATA : DCM
- Voir les cartes d'approche


LFCK - Castres-Mazamet

DERNIER METAR :
  • 211930Z AUTO 29006KT CAVOK 27/18 Q1019 TEMPO 4000 TSRA SCT050CB

METARs EXPIRÉS :
  • 211900Z AUTO 30009KT 9999 ///CB 28/18 Q1019 TEMPO 4000 TSRA
  • 211830Z AUTO 29012KT 9999 ///CB 29/17 Q1018 TEMPO 4000 SHRA
  • 211800Z AUTO 30014KT 9999 FEW048/// ///TCU 30/17 Q1018 TEMPO 4000 SHRA
  • 211730Z AUTO 31012KT 9999 FEW047 30/18 Q1018 TEMPO 4000 SHRA SCT030TCU
  • 211700Z AUTO 29013KT 9999 SCT049 SCT064 30/17 Q1018 TEMPO 4000 SHRA SCT030TCU

TAF AMD TAF LFCK
Valide du 21 à 18h jusqu'au 22 à 03h UTC


211839Z 2118/2203 34010KT CAVOK
TEMPO 2118/2121 SCT030TCU
PROB40
TEMPO 2118/2121 4000 TSRA SCT050CB
Pas de NOTAMs connus pour ce terrain.



MET'MAP, la Météo Aéronautique d'un coup d'oeil ! - Copyright ORBIFLY Décembre 2007 - Disclaimer

ORBIFLY MET'MAP TEAM :

Programmation & Développement : Alexandra Zaïnal
Conception & Développement : Baudouin d'Aumeries
Co-Programmation & Développement : Marc-Olivier Méhu
Soutien technique & logistique : Manuel Goepfert

Contact : metmap@orbifly.com




SOURCES & CREDITS :

   NOAA